Estación Meteorológica Peña el Pijo (Robertgarden) [ 07/23/19 13:03:29 CEST ]

Fecha Hora Presion(HPa) Temp (°C) Humedad % Rocio (°C) Viento ( m/s) Direccion Lluvia 1Hora(mm) Lluvia 24H(mm) LLuvia Total(mm)
2019-Mar-20 01:01:41 1013.300 5.8 74 1.5         184.40
2019-Mar-20 02:01:50 1013.300 4.4 73 -0.1         184.40
2019-Mar-20 03:01:42 1012.800 3.9 75 -0.1         184.40
2019-Mar-20 04:01:47 1012.200 3.4 77 -0.3         184.40
2019-Mar-20 05:02:05 1012.300 4.1 79 0.8         184.40
2019-Mar-20 06:01:50 1012.700 4.3 81 1.3         184.40
2019-Mar-20 07:01:49 1012.800 3.8 82 1.0         184.40
2019-Mar-20 08:01:41 1013.800 3.4 82 0.6         184.40
2019-Mar-20 09:01:31 1014.100 3.8 82 1.0         184.40
2019-Mar-20 10:01:51 1014.300 6.0 78 2.4         184.40
2019-Mar-20 11:01:33 1014.500 7.8 71 2.9         184.40
2019-Mar-20 12:01:44 1014.200 8.9 56 0.6         184.40
2019-Mar-20 13:01:37 1014.000 9.2 53 0.1         184.40
2019-Mar-20 14:01:54 1013.400 9.1 51 -0.6         184.40
2019-Mar-20 15:01:46 1012.900 8.6 59 1.0         184.40
2019-Mar-20 16:01:52 1012.400 11.1 46 -0.1         184.40
2019-Mar-20 17:01:56 1012.500 9.9 49 -0.3         184.40
2019-Mar-20 18:01:47 1012.400 9.3 50 -0.6         184.40
2019-Mar-20 19:01:54 1013.100 8.1 55 -0.5         184.40
2019-Mar-20 20:01:45 1013.700 6.2 63 -0.3         184.40
2019-Mar-20 21:01:56 1014.300 4.8 66 -1.0         184.40
2019-Mar-20 22:01:54 1014.800 4.3 71 -0.5         184.40
2019-Mar-20 23:01:49 1015.200 4.7 73 0.2         184.40

Temperatura Máxima:11°    Temperatura Mínima:
Presión Máxima:1015.200 Hpa    Presión Mínima:1012.200 Hpa


Volver